Time;durP1;ratioP1;P1;durP2;ratioP2;P2;SDS_P1;SDS_P2;PMS_P1;PMS_P2;Temp;Humidity;BMP_temperature;BMP_pressure;BME280_temperature;BME280_humidity;BME280_pressure;Samples;Min_cycle;Max_cycle;Signal;HPM_P1;HPM_P2
2023/03/20 00:00:29;;;;;;;9.35;4.88;;;;;;;;;;5134614;27;20051;-60
2023/03/20 00:02:56;;;;;;;11.45;5.63;;;;;;;;;;5146879;27;20062;-60
2023/03/20 00:05:23;;;;;;;10.20;5.60;;;;;;;;;;5129211;27;20691;-60
2023/03/20 00:07:50;;;;;;;13.20;5.95;;;;;;;;;;5140360;27;20539;-60
2023/03/20 00:10:17;;;;;;;11.20;6.13;;;;;;;;;;5131059;27;20139;-60
2023/03/20 00:12:44;;;;;;;16.92;7.40;;;;;;;;;;5133732;27;20054;-60
2023/03/20 00:15:31;;;;;;;11.75;6.78;;;;;;;;;;5140769;27;20163;-61
2023/03/20 00:17:57;;;;;;;22.58;8.13;;;;;;;;;;5134290;27;20039;-61
2023/03/20 00:20:24;;;;;;;12.18;7.13;;;;;;;;;;5138115;27;20514;-60
2023/03/20 00:22:50;;;;;;;20.10;8.95;;;;;;;;;;5141016;27;20062;-61
2023/03/20 00:25:19;;;;;;;17.85;9.45;;;;;;;;;;5136167;27;20044;-60
2023/03/20 00:27:45;;;;;;;27.05;11.23;;;;;;;;;;5131211;27;20044;-60
2023/03/20 00:30:15;;;;;;;17.70;9.50;;;;;;;;;;5133781;27;20051;-60
2023/03/20 00:32:41;;;;;;;17.67;8.50;;;;;;;;;;5133562;27;20075;-61
2023/03/20 00:35:16;;;;;;;17.02;9.25;;;;;;;;;;5143765;27;20054;-62
2023/03/20 00:37:42;;;;;;;16.13;7.95;;;;;;;;;;5134645;27;20062;-60
2023/03/20 00:40:09;;;;;;;15.80;8.40;;;;;;;;;;5131775;27;20055;-61
2023/03/20 00:42:35;;;;;;;12.98;7.50;;;;;;;;;;5141430;27;20058;-63
2023/03/20 00:45:02;;;;;;;18.55;9.63;;;;;;;;;;5142042;27;20429;-61
2023/03/20 00:47:29;;;;;;;16.17;7.88;;;;;;;;;;5141092;27;20075;-61
2023/03/20 00:49:56;;;;;;;20.15;10.70;;;;;;;;;;5143186;27;20138;-61
2023/03/20 00:52:23;;;;;;;21.98;8.70;;;;;;;;;;5145496;27;20108;-61
2023/03/20 00:54:50;;;;;;;15.60;8.50;;;;;;;;;;5142027;27;20092;-60
2023/03/20 00:57:22;;;;;;;16.65;9.32;;;;;;;;;;5139280;27;20523;-62
2023/03/20 01:00:15;;;;;;;14.75;7.82;;;;;;;;;;5141928;27;20079;-61
2023/03/20 01:02:42;;;;;;;9.90;6.85;;;;;;;;;;5141467;27;20051;-60
2023/03/20 01:05:08;;;;;;;15.15;6.80;;;;;;;;;;5135559;27;20047;-60
2023/03/20 01:07:35;;;;;;;15.18;6.82;;;;;;;;;;5131399;27;20050;-61
2023/03/20 01:10:01;;;;;;;11.32;5.82;;;;;;;;;;5142619;27;20596;-61
2023/03/20 01:12:28;;;;;;;7.72;5.57;;;;;;;;;;5140098;27;20509;-62
2023/03/20 01:14:55;;;;;;;7.75;5.13;;;;;;;;;;5142497;27;20082;-60
2023/03/20 01:17:22;;;;;;;7.32;5.35;;;;;;;;;;5142284;27;20047;-60
2023/03/20 01:19:48;;;;;;;8.63;5.85;;;;;;;;;;5141784;27;20058;-61
2023/03/20 01:22:16;;;;;;;8.40;5.75;;;;;;;;;;5144808;27;20077;-61
2023/03/20 01:24:43;;;;;;;8.35;5.40;;;;;;;;;;5124271;27;20051;-60
2023/03/20 01:27:13;;;;;;;11.00;5.88;;;;;;;;;;5138460;27;20143;-62
2023/03/20 01:29:40;;;;;;;8.63;6.15;;;;;;;;;;5138712;27;20048;-61
2023/03/20 01:32:11;;;;;;;11.25;6.47;;;;;;;;;;5137215;27;20051;-61
2023/03/20 01:34:37;;;;;;;16.48;6.97;;;;;;;;;;5131396;27;20126;-61
2023/03/20 01:37:08;;;;;;;13.77;7.03;;;;;;;;;;5139053;27;20051;-60
2023/03/20 01:39:35;;;;;;;13.13;7.13;;;;;;;;;;5141281;27;20650;-62
2023/03/20 01:42:02;;;;;;;13.05;6.63;;;;;;;;;;5125969;27;21915;-61
2023/03/20 01:44:29;;;;;;;16.77;7.03;;;;;;;;;;5143620;27;20120;-60
2023/03/20 01:46:57;;;;;;;9.55;6.50;;;;;;;;;;5140140;27;20055;-60
2023/03/20 01:49:23;;;;;;;12.65;6.38;;;;;;;;;;5140295;27;20055;-61
2023/03/20 01:51:50;;;;;;;10.50;7.03;;;;;;;;;;5126157;27;20056;-62
2023/03/20 01:54:20;;;;;;;16.50;6.88;;;;;;;;;;5139486;27;20514;-65
2023/03/20 01:56:55;;;;;;;11.98;5.93;;;;;;;;;;5134462;27;20051;-61
2023/03/20 01:59:24;;;;;;;7.90;6.32;;;;;;;;;;5135279;27;21428;-60
2023/03/20 02:01:51;;;;;;;9.07;6.15;;;;;;;;;;5137239;27;20053;-62
2023/03/20 02:04:17;;;;;;;6.90;5.30;;;;;;;;;;5131538;27;20048;-60
2023/03/20 02:06:44;;;;;;;7.43;5.35;;;;;;;;;;5147755;27;20585;-62
2023/03/20 02:09:11;;;;;;;12.35;5.28;;;;;;;;;;5147363;27;20083;-61
2023/03/20 02:11:39;;;;;;;8.70;5.30;;;;;;;;;;5148106;27;20043;-62
2023/03/20 02:14:05;;;;;;;6.40;3.97;;;;;;;;;;5135487;27;20052;-62
2023/03/20 02:16:32;;;;;;;10.07;5.47;;;;;;;;;;5148550;27;20055;-62
2023/03/20 02:18:58;;;;;;;8.15;5.10;;;;;;;;;;5133834;27;20058;-61
2023/03/20 02:21:27;;;;;;;8.82;5.60;;;;;;;;;;5147441;27;20265;-60
2023/03/20 02:24:23;;;;;;;9.43;5.45;;;;;;;;;;5137632;27;20055;-60
2023/03/20 02:26:55;;;;;;;10.60;4.72;;;;;;;;;;5121900;27;20052;-61
2023/03/20 02:29:37;;;;;;;8.85;4.80;;;;;;;;;;5142276;27;20058;-60
2023/03/20 02:32:21;;;;;;;19.17;5.30;;;;;;;;;;5143069;27;20043;-61
2023/03/20 02:35:00;;;;;;;14.65;5.22;;;;;;;;;;5147818;27;20464;-61
2023/03/20 02:37:35;;;;;;;18.65;5.78;;;;;;;;;;5127924;27;20048;-60
2023/03/20 02:40:04;;;;;;;9.32;4.95;;;;;;;;;;5138857;27;20043;-62
2023/03/20 02:42:45;;;;;;;9.02;4.85;;;;;;;;;;5129068;27;20051;-62
2023/03/20 02:45:15;;;;;;;7.60;4.75;;;;;;;;;;5128402;27;20056;-60
2023/03/20 02:47:48;;;;;;;16.20;5.10;;;;;;;;;;5129531;27;20044;-61
2023/03/20 02:50:26;;;;;;;12.95;5.53;;;;;;;;;;5142555;27;20460;-61
2023/03/20 02:53:11;;;;;;;10.27;5.10;;;;;;;;;;5141013;27;20090;-60
2023/03/20 02:56:01;;;;;;;12.40;6.05;;;;;;;;;;5133395;27;20131;-60
2023/03/20 02:58:37;;;;;;;11.63;5.25;;;;;;;;;;5125212;27;20055;-60
2023/03/20 03:01:03;;;;;;;;;;;;;;;;;;5135909;27;20048;-61
2023/03/20 03:03:37;;;;;;;12.15;6.10;;;;;;;;;;5140234;27;45385;-60
2023/03/20 03:06:07;;;;;;;12.38;5.35;;;;;;;;;;5146868;27;20050;-60
2023/03/20 03:08:36;;;;;;;15.38;7.10;;;;;;;;;;5133406;27;20574;-60
2023/03/20 03:11:05;;;;;;;11.88;6.63;;;;;;;;;;5128514;27;20090;-61
2023/03/20 03:13:32;;;;;;;12.32;6.60;;;;;;;;;;5131577;27;20059;-60
2023/03/20 03:16:03;;;;;;;15.02;7.38;;;;;;;;;;5138575;27;20211;-61
2023/03/20 03:18:31;;;;;;;14.35;8.20;;;;;;;;;;5133047;27;20524;-61
2023/03/20 03:20:59;;;;;;;13.05;7.03;;;;;;;;;;5129870;27;20059;-60
2023/03/20 03:23:28;;;;;;;14.85;7.13;;;;;;;;;;5146630;27;20039;-60
2023/03/20 03:25:56;;;;;;;18.10;8.18;;;;;;;;;;5139470;27;20043;-62
2023/03/20 03:28:35;;;;;;;18.02;8.25;;;;;;;;;;5145260;27;20856;-59
2023/03/20 03:31:04;;;;;;;14.85;7.10;;;;;;;;;;5146293;27;20051;-62
2023/03/20 03:33:31;;;;;;;15.55;8.20;;;;;;;;;;5135074;27;20054;-61
2023/03/20 03:36:06;;;;;;;22.30;9.02;;;;;;;;;;5145479;27;20112;-60
2023/03/20 03:38:36;;;;;;;14.13;8.57;;;;;;;;;;5136511;27;20158;-60
2023/03/20 03:41:09;;;;;;;15.40;8.73;;;;;;;;;;5127670;27;20516;-60
2023/03/20 03:43:41;;;;;;;26.27;10.73;;;;;;;;;;5134514;27;20051;-60
2023/03/20 03:46:32;;;;;;;19.92;9.40;;;;;;;;;;5147924;27;20485;-63
2023/03/20 03:49:00;;;;;;;18.65;9.50;;;;;;;;;;5138260;27;20055;-61
2023/03/20 03:51:27;;;;;;;22.00;10.73;;;;;;;;;;5147469;27;20043;-62
2023/03/20 03:54:09;;;;;;;23.65;11.10;;;;;;;;;;5140805;27;20090;-61
2023/03/20 03:56:37;;;;;;;21.75;11.60;;;;;;;;;;5132839;27;20055;-61
2023/03/20 03:59:06;;;;;;;20.73;11.18;;;;;;;;;;5135399;27;20409;-62
2023/03/20 04:01:36;;;;;;;21.80;11.02;;;;;;;;;;5127173;27;20143;-60
2023/03/20 04:04:05;;;;;;;20.63;11.05;;;;;;;;;;5137143;27;20517;-60
2023/03/20 04:06:32;;;;;;;23.15;11.25;;;;;;;;;;5131145;27;20048;-62
2023/03/20 04:08:58;;;;;;;19.13;10.30;;;;;;;;;;5127146;27;20047;-60
2023/03/20 04:11:25;;;;;;;22.75;10.52;;;;;;;;;;5142348;27;20488;-61
2023/03/20 04:13:51;;;;;;;24.25;10.73;;;;;;;;;;5128615;27;20167;-61
2023/03/20 04:16:19;;;;;;;19.65;9.93;;;;;;;;;;5132073;27;20058;-60
2023/03/20 04:18:46;;;;;;;18.67;10.57;;;;;;;;;;5139339;27;20117;-61
2023/03/20 04:21:12;;;;;;;20.92;10.73;;;;;;;;;;5138575;27;20047;-61
2023/03/20 04:23:39;;;;;;;21.80;11.38;;;;;;;;;;5133307;27;20079;-61
2023/03/20 04:26:05;;;;;;;20.77;11.05;;;;;;;;;;5144790;27;20067;-62
2023/03/20 04:28:32;;;;;;;21.90;10.48;;;;;;;;;;5136740;27;20078;-61
2023/03/20 04:30:59;;;;;;;22.10;11.07;;;;;;;;;;5135158;27;20048;-60
2023/03/20 04:33:26;;;;;;;22.48;10.95;;;;;;;;;;5138029;27;20047;-61
2023/03/20 04:35:53;;;;;;;24.33;10.52;;;;;;;;;;5125609;27;20054;-61
2023/03/20 04:38:19;;;;;;;18.88;11.13;;;;;;;;;;5126368;27;20044;-61
2023/03/20 04:40:46;;;;;;;23.85;10.23;;;;;;;;;;5127170;27;20473;-60
2023/03/20 04:43:13;;;;;;;21.45;11.25;;;;;;;;;;5141516;27;20050;-60
2023/03/20 04:45:40;;;;;;;16.38;10.20;;;;;;;;;;5147622;27;20062;-61
2023/03/20 04:48:06;;;;;;;22.95;10.88;;;;;;;;;;5132301;27;20051;-60
2023/03/20 04:50:33;;;;;;;18.17;9.85;;;;;;;;;;5145640;27;20525;-62
2023/03/20 04:52:59;;;;;;;24.58;12.27;;;;;;;;;;5137720;27;20115;-62
2023/03/20 04:55:25;;;;;;;17.88;11.15;;;;;;;;;;5125744;27;20635;-60
2023/03/20 04:57:52;;;;;;;19.52;12.10;;;;;;;;;;5135234;27;20469;-62
2023/03/20 05:00:18;;;;;;;21.20;12.13;;;;;;;;;;5131572;27;20574;-60
2023/03/20 05:02:45;;;;;;;23.45;11.90;;;;;;;;;;5136648;27;20051;-61
2023/03/20 05:05:11;;;;;;;21.35;11.52;;;;;;;;;;5126179;27;20138;-63
2023/03/20 05:07:37;;;;;;;22.35;12.05;;;;;;;;;;5127019;27;20044;-60
2023/03/20 05:10:04;;;;;;;22.63;12.27;;;;;;;;;;5142641;27;20047;-61
2023/03/20 05:12:31;;;;;;;21.52;12.88;;;;;;;;;;5130679;27;20516;-62
2023/03/20 05:14:58;;;;;;;22.40;12.70;;;;;;;;;;5133829;27;20047;-60
2023/03/20 05:17:24;;;;;;;21.55;13.07;;;;;;;;;;5131936;27;20217;-61
2023/03/20 05:19:51;;;;;;;23.55;13.70;;;;;;;;;;5140065;27;20047;-60
2023/03/20 05:22:17;;;;;;;24.80;14.18;;;;;;;;;;5140204;27;20527;-61
2023/03/20 05:24:43;;;;;;;25.13;12.77;;;;;;;;;;5140579;27;20516;-60
2023/03/20 05:27:10;;;;;;;20.02;12.20;;;;;;;;;;5141247;27;20052;-60
2023/03/20 05:29:36;;;;;;;21.50;12.73;;;;;;;;;;5135426;27;20044;-60
2023/03/20 05:32:03;;;;;;;25.13;12.38;;;;;;;;;;5133580;27;20058;-61
2023/03/20 05:34:29;;;;;;;27.25;13.15;;;;;;;;;;5133062;27;20047;-60
2023/03/20 05:36:56;;;;;;;24.08;13.23;;;;;;;;;;5147313;27;20048;-60
2023/03/20 05:39:22;;;;;;;19.98;12.45;;;;;;;;;;5146621;27;20055;-60
2023/03/20 05:41:49;;;;;;;24.25;13.45;;;;;;;;;;5132483;27;20464;-61
2023/03/20 05:44:15;;;;;;;23.23;12.80;;;;;;;;;;5138636;27;20090;-60
2023/03/20 05:46:42;;;;;;;21.17;13.55;;;;;;;;;;5149387;27;20055;-60
2023/03/20 05:49:08;;;;;;;22.25;12.57;;;;;;;;;;5134224;27;20076;-61
2023/03/20 05:51:34;;;;;;;22.63;12.43;;;;;;;;;;5147967;27;20058;-60
2023/03/20 05:54:00;;;;;;;23.60;13.90;;;;;;;;;;5150229;27;20161;-60
2023/03/20 05:56:27;;;;;;;29.30;14.18;;;;;;;;;;5136544;27;20039;-61
2023/03/20 05:58:53;;;;;;;23.90;12.55;;;;;;;;;;5149201;27;20090;-62
2023/03/20 06:01:20;;;;;;;20.00;12.38;;;;;;;;;;5131404;27;20047;-61
2023/03/20 06:03:47;;;;;;;24.00;12.98;;;;;;;;;;5129078;27;20144;-61
2023/03/20 06:06:14;;;;;;;20.95;12.38;;;;;;;;;;5129510;27;20044;-62
2023/03/20 06:08:41;;;;;;;21.17;12.20;;;;;;;;;;5129299;27;20117;-61
2023/03/20 06:11:07;;;;;;;21.80;12.25;;;;;;;;;;5128213;27;20048;-60
2023/03/20 06:13:34;;;;;;;18.42;12.60;;;;;;;;;;5137558;27;20436;-62
2023/03/20 06:16:00;;;;;;;18.85;12.32;;;;;;;;;;5142275;27;20101;-61
2023/03/20 06:18:27;;;;;;;20.48;12.20;;;;;;;;;;5129213;27;20515;-61
2023/03/20 06:20:54;;;;;;;19.48;12.57;;;;;;;;;;5128172;27;20091;-61
2023/03/20 06:23:21;;;;;;;23.48;11.70;;;;;;;;;;5128792;27;20048;-62
2023/03/20 06:25:47;;;;;;;20.45;12.43;;;;;;;;;;5129019;27;20050;-61
2023/03/20 06:28:14;;;;;;;21.05;12.45;;;;;;;;;;5129071;27;20081;-60
2023/03/20 06:30:40;;;;;;;17.60;12.00;;;;;;;;;;5131502;27;20618;-60
2023/03/20 06:33:07;;;;;;;24.15;12.32;;;;;;;;;;5129558;27;20516;-60
2023/03/20 06:35:33;;;;;;;22.10;11.52;;;;;;;;;;5126546;27;20472;-60
2023/03/20 06:38:00;;;;;;;18.65;10.50;;;;;;;;;;5135187;27;20124;-60
2023/03/20 06:40:27;;;;;;;22.10;12.00;;;;;;;;;;5149444;27;20055;-62
2023/03/20 06:42:53;;;;;;;21.67;11.43;;;;;;;;;;5148880;27;20510;-61
2023/03/20 06:45:20;;;;;;;19.38;12.82;;;;;;;;;;5148577;27;20104;-61
2023/03/20 06:47:47;;;;;;;17.38;11.80;;;;;;;;;;5149060;27;20047;-61
2023/03/20 06:50:13;;;;;;;18.35;11.77;;;;;;;;;;5148900;27;20453;-60
2023/03/20 06:52:41;;;;;;;20.77;11.52;;;;;;;;;;5144575;27;20056;-61
2023/03/20 06:55:07;;;;;;;20.10;11.93;;;;;;;;;;5149146;27;20054;-60
2023/03/20 06:57:33;;;;;;;21.35;12.02;;;;;;;;;;5149354;27;20082;-61
2023/03/20 07:00:00;;;;;;;24.30;11.55;;;;;;;;;;5149009;27;20126;-61
2023/03/20 07:02:27;;;;;;;21.80;10.85;;;;;;;;;;5148983;27;20047;-60
2023/03/20 07:04:53;;;;;;;18.63;12.00;;;;;;;;;;5144395;27;20058;-60
2023/03/20 07:07:19;;;;;;;17.33;11.02;;;;;;;;;;5141722;27;20059;-60
2023/03/20 07:09:46;;;;;;;19.38;11.10;;;;;;;;;;5146312;27;20051;-60
2023/03/20 07:12:13;;;;;;;18.63;11.68;;;;;;;;;;5149241;27;20804;-60
2023/03/20 07:14:42;;;;;;;21.20;11.55;;;;;;;;;;5147985;27;20043;-60
2023/03/20 07:17:09;;;;;;;19.52;10.70;;;;;;;;;;5148749;27;20773;-61
2023/03/20 07:19:35;;;;;;;26.80;12.75;;;;;;;;;;5134613;27;20079;-62
2023/03/20 07:22:05;;;;;;;17.58;10.13;;;;;;;;;;5133506;27;20467;-61
2023/03/20 07:24:31;;;;;;;20.30;11.23;;;;;;;;;;5148583;27;20047;-60
2023/03/20 07:26:58;;;;;;;22.77;11.07;;;;;;;;;;5130634;27;20055;-61
2023/03/20 07:29:24;;;;;;;19.80;10.55;;;;;;;;;;5128112;27;20048;-61
2023/03/20 07:31:51;;;;;;;15.95;10.13;;;;;;;;;;5130342;27;20051;-62
2023/03/20 07:34:17;;;;;;;20.40;10.80;;;;;;;;;;5144671;27;20489;-61
2023/03/20 07:36:44;;;;;;;19.75;10.55;;;;;;;;;;5148272;27;20058;-60
2023/03/20 07:39:12;;;;;;;18.15;10.00;;;;;;;;;;5147565;27;20100;-60
2023/03/20 07:41:38;;;;;;;18.88;9.55;;;;;;;;;;5146059;27;20048;-60
2023/03/20 07:44:06;;;;;;;25.05;10.45;;;;;;;;;;5147844;27;20496;-60
2023/03/20 07:46:33;;;;;;;17.70;9.43;;;;;;;;;;5146037;27;20055;-61
2023/03/20 07:48:59;;;;;;;14.05;8.75;;;;;;;;;;5147753;27;20044;-62
2023/03/20 07:51:26;;;;;;;20.60;10.13;;;;;;;;;;5147885;27;20053;-62
2023/03/20 07:53:52;;;;;;;16.30;9.60;;;;;;;;;;5145788;27;20047;-62
2023/03/20 07:56:18;;;;;;;21.83;9.93;;;;;;;;;;5139101;27;20043;-60
2023/03/20 07:58:45;;;;;;;16.60;8.75;;;;;;;;;;5147607;27;20051;-61
2023/03/20 08:01:11;;;;;;;17.40;9.35;;;;;;;;;;5139779;27;20539;-61
2023/03/20 08:03:38;;;;;;;16.17;8.98;;;;;;;;;;5128082;27;20063;-60
2023/03/20 08:06:07;;;;;;;16.75;8.30;;;;;;;;;;5142665;27;20057;-60
2023/03/20 08:08:34;;;;;;;15.68;7.90;;;;;;;;;;5125993;27;20047;-61
2023/03/20 08:11:00;;;;;;;18.27;8.68;;;;;;;;;;5128605;27;20051;-59
2023/03/20 08:13:27;;;;;;;23.63;8.70;;;;;;;;;;5132969;27;20048;-62
2023/03/20 08:15:53;;;;;;;16.73;8.60;;;;;;;;;;5145235;27;20050;-61
2023/03/20 08:18:21;;;;;;;15.52;8.77;;;;;;;;;;5147199;27;20043;-61
2023/03/20 08:20:49;;;;;;;19.30;8.45;;;;;;;;;;5146609;27;20171;-60
2023/03/20 08:23:15;;;;;;;16.73;8.40;;;;;;;;;;5147654;27;20055;-60
2023/03/20 08:25:46;;;;;;;15.55;7.47;;;;;;;;;;5146090;27;20150;-61
2023/03/20 08:28:13;;;;;;;13.75;7.25;;;;;;;;;;5142860;27;20051;-60
2023/03/20 08:30:39;;;;;;;16.05;7.53;;;;;;;;;;5146357;27;20113;-60
2023/03/20 08:33:06;;;;;;;12.45;6.80;;;;;;;;;;5145394;27;20047;-63
2023/03/20 08:35:32;;;;;;;17.23;7.80;;;;;;;;;;5125280;27;20422;-61
2023/03/20 08:38:00;;;;;;;14.75;6.80;;;;;;;;;;5129276;27;20521;-61
2023/03/20 08:40:26;;;;;;;12.60;6.20;;;;;;;;;;5127505;27;20051;-60
2023/03/20 08:42:52;;;;;;;12.43;6.50;;;;;;;;;;5126180;27;20051;-60
2023/03/20 08:45:19;;;;;;;17.08;5.97;;;;;;;;;;5128371;27;20051;-60
2023/03/20 08:47:47;;;;;;;16.60;6.85;;;;;;;;;;5125969;27;20081;-60
2023/03/20 08:50:14;;;;;;;15.18;7.07;;;;;;;;;;5126818;27;20044;-60
2023/03/20 08:52:43;;;;;;;14.90;6.30;;;;;;;;;;5134608;27;20397;-61
2023/03/20 08:55:10;;;;;;;11.65;5.88;;;;;;;;;;5132047;27;20096;-61
2023/03/20 08:57:37;;;;;;;17.85;6.80;;;;;;;;;;5146969;27;20058;-61
2023/03/20 09:00:05;;;;;;;16.25;6.82;;;;;;;;;;5137382;27;20052;-61
2023/03/20 09:02:32;;;;;;;17.67;7.03;;;;;;;;;;5126070;27;20036;-61
2023/03/20 09:04:58;;;;;;;13.95;6.30;;;;;;;;;;5126564;27;20058;-61
2023/03/20 09:07:25;;;;;;;17.98;6.72;;;;;;;;;;5126979;27;20044;-60
2023/03/20 09:09:51;;;;;;;16.52;7.30;;;;;;;;;;5145932;27;20051;-61
2023/03/20 09:12:17;;;;;;;14.60;6.82;;;;;;;;;;5145792;27;20051;-61
2023/03/20 09:14:44;;;;;;;13.57;7.07;;;;;;;;;;5136512;27;20054;-60
2023/03/20 09:17:10;;;;;;;13.80;6.70;;;;;;;;;;5125820;27;20040;-60
2023/03/20 09:19:38;;;;;;;11.68;6.45;;;;;;;;;;5131217;27;20047;-61
2023/03/20 09:22:05;;;;;;;13.23;6.07;;;;;;;;;;5146312;27;20046;-60
2023/03/20 09:24:32;;;;;;;18.85;6.47;;;;;;;;;;5145299;27;20100;-61
2023/03/20 09:26:59;;;;;;;13.73;6.25;;;;;;;;;;5127035;27;20058;-60
2023/03/20 09:29:28;;;;;;;13.45;5.65;;;;;;;;;;5131423;27;20566;-59
2023/03/20 09:31:55;;;;;;;18.50;6.55;;;;;;;;;;5128000;27;20044;-60
2023/03/20 09:34:21;;;;;;;10.95;5.88;;;;;;;;;;5127269;27;20135;-62
2023/03/20 09:36:47;;;;;;;12.65;5.32;;;;;;;;;;5127417;27;20063;-60
2023/03/20 09:39:14;;;;;;;11.23;5.45;;;;;;;;;;5125794;27;20075;-61
2023/03/20 09:41:45;;;;;;;13.18;5.78;;;;;;;;;;5126030;27;20472;-60
2023/03/20 09:44:32;;;;;;;11.00;5.40;;;;;;;;;;5131541;27;20055;-60
2023/03/20 09:47:08;;;;;;;10.85;5.97;;;;;;;;;;5133646;27;20056;-60
2023/03/20 09:49:51;;;;;;;17.17;6.20;;;;;;;;;;5128398;27;20047;-59
2023/03/20 09:52:32;;;;;;;10.02;5.72;;;;;;;;;;5136682;27;20075;-60
2023/03/20 09:55:04;;;;;;;15.07;5.85;;;;;;;;;;5138824;27;20051;-60
2023/03/20 09:57:34;;;;;;;16.77;6.32;;;;;;;;;;5145787;27;20488;-60
2023/03/20 10:00:03;;;;;;;8.95;5.68;;;;;;;;;;5144863;27;20143;-60
2023/03/20 10:02:44;;;;;;;12.45;5.68;;;;;;;;;;5130469;27;20051;-60
2023/03/20 10:05:22;;;;;;;12.38;5.78;;;;;;;;;;5125925;27;20051;-60
2023/03/20 10:07:49;;;;;;;13.45;6.05;;;;;;;;;;5125755;27;20052;-60
2023/03/20 10:10:19;;;;;;;17.58;6.30;;;;;;;;;;5125989;27;20525;-60
2023/03/20 10:12:45;;;;;;;10.52;5.38;;;;;;;;;;5126263;27;20135;-62
2023/03/20 10:15:21;;;;;;;12.52;5.65;;;;;;;;;;5125475;27;20424;-60
2023/03/20 10:17:54;;;;;;;19.60;6.50;;;;;;;;;;5125205;27;20051;-60
2023/03/20 10:20:38;;;;;;;11.73;5.00;;;;;;;;;;5128249;27;20085;-60
2023/03/20 10:23:06;;;;;;;13.80;6.13;;;;;;;;;;5129167;27;20097;-60
2023/03/20 10:25:39;;;;;;;13.38;5.93;;;;;;;;;;5129140;27;20494;-61
2023/03/20 10:28:09;;;;;;;11.38;4.53;;;;;;;;;;5128380;27;20554;-61
2023/03/20 10:30:55;;;;;;;12.52;5.10;;;;;;;;;;5144187;27;20047;-62
2023/03/20 10:33:41;;;;;;;10.80;5.15;;;;;;;;;;5128224;27;20558;-61
2023/03/20 10:36:17;;;;;;;10.55;4.80;;;;;;;;;;5128391;27;20539;-61
2023/03/20 10:38:43;;;;;;;;;;;;;;;;;;5140010;27;20135;-61
2023/03/20 10:41:15;;;;;;;14.93;4.82;;;;;;;;;;5148565;27;46437;-61
2023/03/20 10:43:42;;;;;;;11.93;4.55;;;;;;;;;;5147749;27;20085;-62
2023/03/20 10:46:10;;;;;;;10.02;5.10;;;;;;;;;;5133621;27;20060;-61
2023/03/20 10:48:43;;;;;;;12.55;5.63;;;;;;;;;;5130890;27;20047;-61
2023/03/20 10:51:15;;;;;;;16.30;6.30;;;;;;;;;;5132062;27;20051;-60
2023/03/20 10:53:47;;;;;;;18.98;5.35;;;;;;;;;;5128285;27;20052;-61
2023/03/20 10:56:34;;;;;;;16.10;6.10;;;;;;;;;;5129146;27;20083;-61
2023/03/20 10:59:07;;;;;;;14.23;5.47;;;;;;;;;;5126678;27;20054;-60
2023/03/20 11:01:33;;;;;;;15.40;5.68;;;;;;;;;;5143387;27;20174;-60
2023/03/20 11:04:01;;;;;;;15.23;5.97;;;;;;;;;;5143612;27;20078;-60
2023/03/20 11:06:31;;;;;;;15.15;6.15;;;;;;;;;;5137042;27;20134;-61
2023/03/20 11:09:07;;;;;;;17.10;6.47;;;;;;;;;;5148696;27;20139;-62
2023/03/20 11:11:33;;;;;;;12.02;6.57;;;;;;;;;;5133131;27;20048;-60
2023/03/20 11:14:08;;;;;;;9.82;6.32;;;;;;;;;;5128640;27;20500;-61
2023/03/20 11:16:39;;;;;;;11.43;6.45;;;;;;;;;;5143576;27;20054;-61
2023/03/20 11:19:07;;;;;;;14.93;7.38;;;;;;;;;;5148865;27;20501;-61
2023/03/20 11:21:35;;;;;;;14.60;7.53;;;;;;;;;;5148602;27;20073;-60
2023/03/20 11:24:03;;;;;;;12.70;7.40;;;;;;;;;;5130608;27;20538;-62
2023/03/20 11:26:33;;;;;;;15.23;8.68;;;;;;;;;;5127621;27;20569;-60
2023/03/20 11:28:59;;;;;;;15.00;9.35;;;;;;;;;;5133558;27;20803;-60
2023/03/20 11:31:39;;;;;;;20.67;9.10;;;;;;;;;;5130368;27;20083;-59
2023/03/20 11:34:06;;;;;;;15.93;8.45;;;;;;;;;;5143908;27;20051;-61
2023/03/20 11:36:34;;;;;;;21.85;10.10;;;;;;;;;;5131478;27;20205;-61
2023/03/20 11:39:12;;;;;;;16.70;9.40;;;;;;;;;;5147328;27;20577;-60
2023/03/20 11:41:46;;;;;;;22.00;10.00;;;;;;;;;;5147481;27;20146;-61
2023/03/20 11:44:22;;;;;;;18.83;11.15;;;;;;;;;;5129799;27;20642;-59
2023/03/20 11:46:56;;;;;;;25.88;10.38;;;;;;;;;;5131864;27;20058;-61
2023/03/20 11:49:29;;;;;;;21.35;11.60;;;;;;;;;;5130612;27;20532;-60
2023/03/20 11:51:59;;;;;;;18.35;11.70;;;;;;;;;;5142972;27;20465;-59
2023/03/20 11:54:26;;;;;;;23.30;11.40;;;;;;;;;;5139634;27;20048;-61
2023/03/20 11:56:54;;;;;;;18.17;11.35;;;;;;;;;;5131741;27;20071;-61
2023/03/20 11:59:21;;;;;;;25.90;12.25;;;;;;;;;;5142464;27;20042;-60
2023/03/20 12:01:50;;;;;;;21.92;10.95;;;;;;;;;;5146973;27;20052;-61
2023/03/20 12:04:18;;;;;;;22.38;10.50;;;;;;;;;;5147999;27;20134;-59
2023/03/20 12:07:03;;;;;;;20.42;11.73;;;;;;;;;;5137508;27;20922;-60
2023/03/20 12:09:36;;;;;;;23.73;11.95;;;;;;;;;;5147805;27;20043;-61
2023/03/20 12:12:12;;;;;;;26.25;12.43;;;;;;;;;;5147146;27;20047;-60
2023/03/20 12:14:46;;;;;;;25.33;12.27;;;;;;;;;;5134999;27;20509;-60
2023/03/20 12:17:12;;;;;;;20.98;12.77;;;;;;;;;;5140061;27;20047;-61
2023/03/20 12:19:39;;;;;;;22.48;12.63;;;;;;;;;;5146593;27;20513;-61
2023/03/20 12:22:41;;;;;;;23.23;13.27;;;;;;;;;;5148211;27;20641;-61
2023/03/20 12:25:08;;;;;;;26.95;13.98;;;;;;;;;;5081569;28;20514;-60
2023/03/20 12:27:44;;;;;;;26.70;14.07;;;;;;;;;;5081863;28;20110;-62
2023/03/20 12:30:13;;;;;;;26.48;14.20;;;;;;;;;;5082740;28;20051;-62
2023/03/20 12:32:39;;;;;;;21.52;13.07;;;;;;;;;;5066964;28;20059;-60
2023/03/20 12:35:18;;;;;;;24.13;13.80;;;;;;;;;;5074453;28;20052;-60
2023/03/20 12:37:44;;;;;;;22.48;14.00;;;;;;;;;;5082869;28;20052;-61
2023/03/20 12:40:14;;;;;;;30.33;15.23;;;;;;;;;;5078994;28;20045;-60
2023/03/20 12:42:52;;;;;;;29.27;14.27;;;;;;;;;;5083213;28;20059;-60
2023/03/20 12:45:24;;;;;;;29.23;14.98;;;;;;;;;;5077156;28;20055;-61
2023/03/20 12:48:21;;;;;;;25.80;14.77;;;;;;;;;;5082728;28;20156;-60
2023/03/20 12:50:58;;;;;;;22.40;14.10;;;;;;;;;;5020504;28;20519;-61
2023/03/20 12:53:43;;;;;;;22.60;15.48;;;;;;;;;;5011087;28;20168;-60
2023/03/20 12:56:28;;;;;;;23.15;15.27;;;;;;;;;;5016225;28;20065;-61
2023/03/20 12:59:11;;;;;;;25.00;15.20;;;;;;;;;;5037002;28;20139;-61
2023/03/20 13:01:44;;;;;;;21.08;14.02;;;;;;;;;;5074122;28;20056;-60
2023/03/20 13:04:10;;;;;;;26.80;14.90;;;;;;;;;;5076650;28;20585;-61
2023/03/20 13:06:39;;;;;;;20.67;14.18;;;;;;;;;;5066758;28;20107;-60
2023/03/20 13:09:14;;;;;;;29.58;14.63;;;;;;;;;;5065794;28;20046;-61
2023/03/20 13:11:41;;;;;;;;;;;;;;;;;;5066986;28;20053;-61
2023/03/20 13:14:25;;;;;;;23.13;14.60;;;;;;;;;;5068360;28;46807;-60
2023/03/20 13:16:52;;;;;;;22.33;14.75;;;;;;;;;;5081499;28;20215;-60
2023/03/20 13:19:25;;;;;;;22.98;14.85;;;;;;;;;;5076800;28;20078;-60
2023/03/20 13:21:59;;;;;;;22.42;15.10;;;;;;;;;;5080104;28;20526;-60
2023/03/20 13:24:34;;;;;;;20.92;14.25;;;;;;;;;;5081889;28;20045;-61
2023/03/20 13:27:03;;;;;;;29.73;15.60;;;;;;;;;;5102225;27;20429;-60
2023/03/20 13:29:42;;;;;;;19.45;13.57;;;;;;;;;;5127196;27;20040;-60
2023/03/20 13:32:11;;;;;;;20.92;14.68;;;;;;;;;;5126301;27;20047;-61
2023/03/20 13:34:50;;;;;;;26.60;16.10;;;;;;;;;;5142859;27;20055;-61
2023/03/20 13:37:26;;;;;;;21.83;14.55;;;;;;;;;;5142465;27;20527;-61
2023/03/20 13:40:12;;;;;;;21.45;13.35;;;;;;;;;;5143731;27;20062;-61
2023/03/20 13:42:44;;;;;;;27.63;14.98;;;;;;;;;;5131263;27;20600;-61
2023/03/20 13:45:24;;;;;;;25.55;14.68;;;;;;;;;;5126395;27;20086;-61
2023/03/20 13:47:52;;;;;;;23.42;14.82;;;;;;;;;;5129453;27;20536;-60
2023/03/20 13:50:47;;;;;;;26.45;15.52;;;;;;;;;;5132082;27;20043;-61
2023/03/20 13:53:22;;;;;;;21.05;14.13;;;;;;;;;;5125131;27;20055;-61
2023/03/20 13:55:56;;;;;;;23.17;13.88;;;;;;;;;;5138674;27;20051;-61
2023/03/20 13:58:22;;;;;;;30.27;15.60;;;;;;;;;;5129249;27;20047;-61
2023/03/20 14:01:09;;;;;;;22.98;14.15;;;;;;;;;;5132821;27;20595;-62
2023/03/20 14:03:42;;;;;;;25.65;14.88;;;;;;;;;;5144373;27;20062;-61
2023/03/20 14:06:16;;;;;;;25.60;17.05;;;;;;;;;;5128677;27;20650;-60
2023/03/20 14:08:46;;;;;;;27.75;14.90;;;;;;;;;;5129594;27;20051;-60
2023/03/20 14:11:19;;;;;;;22.40;15.18;;;;;;;;;;5129542;27;20098;-60
2023/03/20 14:13:47;;;;;;;21.27;16.30;;;;;;;;;;5133121;27;20047;-61
2023/03/20 14:16:15;;;;;;;22.73;14.07;;;;;;;;;;5134231;27;20061;-60
2023/03/20 14:18:43;;;;;;;21.05;14.43;;;;;;;;;;5142430;27;20073;-60
2023/03/20 14:21:13;;;;;;;20.02;14.00;;;;;;;;;;5127017;27;20055;-59
2023/03/20 14:23:46;;;;;;;29.60;14.82;;;;;;;;;;5132570;27;20043;-59
2023/03/20 14:26:21;;;;;;;21.30;13.55;;;;;;;;;;5135230;27;20050;-60
2023/03/20 14:28:48;;;;;;;;;;;;;;;;;;5146155;27;20082;-61
2023/03/20 14:31:31;;;;;;;21.48;13.13;;;;;;;;;;5148390;27;46109;-60
2023/03/20 14:34:12;;;;;;;22.70;12.82;;;;;;;;;;5138118;27;20077;-61
2023/03/20 14:36:57;;;;;;;24.70;14.02;;;;;;;;;;5129023;27;20507;-60
2023/03/20 14:39:26;;;;;;;18.77;12.50;;;;;;;;;;5128499;27;20849;-60
2023/03/20 14:42:18;;;;;;;20.25;14.35;;;;;;;;;;5136844;27;20047;-61